Saturday, November 01, 2014
06:56 UTC
  |  Log In   |  Register Free
Airport Search:

South Alabama Regional At Bill Benton Field Airport
(K79J)

South Alabama Regional At Bill Benton Field Airport Diagram
No Airport Diagram Available

FAA data valid effective September 18, 2014 - November 13, 2014 (unless otherwise noted).

 
 
 
 
 
 
 
 
 
 
 
 
 
 

Current Aviation Weather for South Alabama Regional At Bill Benton Field Airport (K79J)

The most recent METAR observation for K79J was updated at: 0615
METAR Summary (Translated METAR)
K79J
010556Z AUTO 36017G23KT 10SM CLR 12/01 A3010 RMK AO2 PK WND 36028/0516 SLP190 T01170006 10194 20117 51023
K0J4
010558Z AUTO 34011G26KT 310V010 10SM FEW049 11/01 A3010 RMK AO2 PK WND 02026/0551 SLP190 T01110006 10172 20111 52020 $
(16.5 nm SE from K79J)
KEDN
010555Z AUTO 35014G19KT 10SM SCT033 SCT039 BKN047 09/02 A3008 RMK AO2
(25.3 nm SE from K79J)
TAF
No TAF information found within 50 nm of KLOR
  Airport Weather Conditions for K79J

 Current Weather at 79J
53° F
Fair
North winds at 19.6 mph
79J NOAA Radar

Pressure: 30.10 in
Humidity: 47%
Wind: from the North at 19.6 gusting to 26.5 MPH (17 gusting to 23 KT)
Dew Point: 33.1°F
Visibility: 10.00 mi


Airport Weather Forecast for K79J

Translated METAR and TAF for KLOR
Translated METAR for KLOR (0651 UTC 01 November 2014)
found at http://aviationweather.gov/adds/metars/
 
METAR text: KLOR 010553Z AUTO 35011KT 10SM SCT055 09/01 A3007 RMK AO2 PK WND 36031/0507 SLP179 T00890011 10167 20089 53027 TSNO $
Conditions at: KLOR (LOWE AHP/FT. RUC, AL, US) observed 0553 UTC 01 November 2014
Temperature: 8.9°C (48°F)
Dewpoint: 1.1°C (34°F) [RH = 58%]
Pressure (altimeter): 30.07 inches Hg (1018.4 mb)
[Sea-level pressure: 1017.9 mb]
Winds: from the N (350 degrees) at 13 MPH (11 knots; 5.7 m/s)
Visibility: 10 or more miles (16+ km)
Ceiling: at least 12,000 feet AGL
Clouds: scattered clouds at 5500 feet AGL
Weather:
SOME DATA ABOVE MAY BE INACCURATE!!!
"$" is an indication the sensor requires maintenance
Translated TAF for KLOR

There is no translated TAF available for this airport

Find All Airport Services Find A Hotel Find A Rental Car Find A Golf Course Find A Restaurant $100 Hamburger



FBO's on the Field
FBO Company Facility Photos Services Transportation Aviation Fuel Prices: Prices include tax
Catering Weather Repair Courtesy Rental Type 100LL JetA JetA+ MOGAS 8087
 
South Alabama Regional Airport

This FBO has not yet been rated
FS:Phillips 66
Last Updated: Oct-07
Login to update fuel prices
SS:
Contact South Alabama Regional AirportMore FBO Information
 
Add another FBO Facility Photos Catering Weather Repair Courtesy Rental Type 100LL JetA JetA+ MOGAS 8087
Services Transportation Aviation Fuel Prices: Prices include tax


model-print
model-print
model-print
model-print